sensor_id;sensor_type;location;lat;lon;timestamp;pressure;altitude;pressure_sealevel;temperature;humidity
59417;BME280;45222;52.458;20.914;2023-04-30T00:02:07;100450.27;;;11.37;69.89
59417;BME280;45222;52.458;20.914;2023-04-30T00:05:53;100448.21;;;11.39;70.64
59417;BME280;45222;52.458;20.914;2023-04-30T00:09:38;100446.63;;;11.39;71.24
59417;BME280;45222;52.458;20.914;2023-04-30T00:13:23;100448.30;;;11.37;71.77
59417;BME280;45222;52.458;20.914;2023-04-30T00:17:09;100443.52;;;11.33;71.85
59417;BME280;45222;52.458;20.914;2023-04-30T00:20:54;100446.61;;;11.32;72.39
59417;BME280;45222;52.458;20.914;2023-04-30T00:24:39;100448.48;;;11.30;73.35
59417;BME280;45222;52.458;20.914;2023-04-30T00:28:24;100453.31;;;11.30;73.86
59417;BME280;45222;52.458;20.914;2023-04-30T00:32:09;100450.56;;;11.31;74.35
59417;BME280;45222;52.458;20.914;2023-04-30T00:35:55;100452.80;;;11.33;74.79
59417;BME280;45222;52.458;20.914;2023-04-30T00:39:40;100455.44;;;11.34;75.26
59417;BME280;45222;52.458;20.914;2023-04-30T00:43:25;100460.38;;;11.31;75.54
59417;BME280;45222;52.458;20.914;2023-04-30T00:47:10;100462.48;;;11.28;75.93
59417;BME280;45222;52.458;20.914;2023-04-30T00:50:56;100463.42;;;11.31;76.41
59417;BME280;45222;52.458;20.914;2023-04-30T00:54:41;100466.71;;;11.36;76.93
59417;BME280;45222;52.458;20.914;2023-04-30T00:58:27;100464.93;;;11.29;77.27
59417;BME280;45222;52.458;20.914;2023-04-30T01:02:13;100463.67;;;11.11;78.15
59417;BME280;45222;52.458;20.914;2023-04-30T01:05:59;100466.20;;;10.99;77.75
59417;BME280;45222;52.458;20.914;2023-04-30T01:09:44;100467.20;;;10.97;78.03
59417;BME280;45222;52.458;20.914;2023-04-30T01:13:33;100470.08;;;11.00;78.14
59417;BME280;45222;52.458;20.914;2023-04-30T01:17:30;100469.04;;;11.07;78.26
59417;BME280;45222;52.458;20.914;2023-04-30T01:21:18;100474.16;;;11.15;78.55
59417;BME280;45222;52.458;20.914;2023-04-30T01:25:18;100479.17;;;11.18;78.60
59417;BME280;45222;52.458;20.914;2023-04-30T01:29:06;100479.37;;;11.18;78.78
59417;BME280;45222;52.458;20.914;2023-04-30T01:32:52;100481.46;;;11.15;78.72
59417;BME280;45222;52.458;20.914;2023-04-30T01:36:47;100487.75;;;11.13;79.16
59417;BME280;45222;52.458;20.914;2023-04-30T01:40:41;100490.77;;;11.18;79.48
59417;BME280;45222;52.458;20.914;2023-04-30T01:44:45;100495.42;;;11.20;79.43
59417;BME280;45222;52.458;20.914;2023-04-30T01:48:39;100505.14;;;11.18;79.53
59417;BME280;45222;52.458;20.914;2023-04-30T01:52:33;100503.73;;;11.18;79.70
59417;BME280;45222;52.458;20.914;2023-04-30T01:56:24;100509.58;;;11.18;79.39
59417;BME280;45222;52.458;20.914;2023-04-30T02:00:13;100509.36;;;11.16;79.57
59417;BME280;45222;52.458;20.914;2023-04-30T02:04:01;100516.77;;;11.10;79.73
59417;BME280;45222;52.458;20.914;2023-04-30T02:07:49;100516.77;;;11.02;80.01
59417;BME280;45222;52.458;20.914;2023-04-30T02:11:34;100521.48;;;10.96;80.85
59417;BME280;45222;52.458;20.914;2023-04-30T02:15:20;100524.78;;;10.95;81.59
59417;BME280;45222;52.458;20.914;2023-04-30T02:19:05;100538.75;;;10.89;81.26
59417;BME280;45222;52.458;20.914;2023-04-30T02:22:50;100541.70;;;10.83;81.23
59417;BME280;45222;52.458;20.914;2023-04-30T02:26:35;100549.56;;;10.79;81.24
59417;BME280;45222;52.458;20.914;2023-04-30T02:30:20;100553.15;;;10.69;81.31
59417;BME280;45222;52.458;20.914;2023-04-30T02:34:05;100553.32;;;10.62;81.32
59417;BME280;45222;52.458;20.914;2023-04-30T02:37:51;100562.59;;;10.58;81.66
59417;BME280;45222;52.458;20.914;2023-04-30T02:41:36;100568.91;;;10.52;81.61
59417;BME280;45222;52.458;20.914;2023-04-30T02:45:21;100567.73;;;10.46;82.05
59417;BME280;45222;52.458;20.914;2023-04-30T02:49:07;100575.73;;;10.42;82.27
59417;BME280;45222;52.458;20.914;2023-04-30T02:52:52;100574.17;;;10.37;82.98
59417;BME280;45222;52.458;20.914;2023-04-30T02:56:39;100580.48;;;10.30;83.27
59417;BME280;45222;52.458;20.914;2023-04-30T03:00:24;100598.42;;;10.23;84.14
59417;BME280;45222;52.458;20.914;2023-04-30T03:04:10;100597.45;;;10.12;84.31
59417;BME280;45222;52.458;20.914;2023-04-30T03:07:55;100602.60;;;9.99;83.05
59417;BME280;45222;52.458;20.914;2023-04-30T03:11:40;100607.52;;;9.84;80.78
59417;BME280;45222;52.458;20.914;2023-04-30T03:15:25;100611.67;;;9.65;77.64
59417;BME280;45222;52.458;20.914;2023-04-30T03:19:11;100617.69;;;9.48;75.04
59417;BME280;45222;52.458;20.914;2023-04-30T03:22:56;100621.95;;;9.34;73.49
59417;BME280;45222;52.458;20.914;2023-04-30T03:26:42;100626.36;;;9.25;72.80
59417;BME280;45222;52.458;20.914;2023-04-30T03:30:27;100632.21;;;9.17;71.70
59417;BME280;45222;52.458;20.914;2023-04-30T03:34:12;100629.73;;;9.07;71.16
59417;BME280;45222;52.458;20.914;2023-04-30T03:37:57;100635.21;;;9.03;71.44
59417;BME280;45222;52.458;20.914;2023-04-30T03:41:43;100641.36;;;9.00;70.83
59417;BME280;45222;52.458;20.914;2023-04-30T03:45:28;100645.79;;;8.95;70.97
59417;BME280;45222;52.458;20.914;2023-04-30T03:49:13;100653.92;;;8.91;70.58
59417;BME280;45222;52.458;20.914;2023-04-30T03:52:59;100658.02;;;8.90;71.31
59417;BME280;45222;52.458;20.914;2023-04-30T03:56:44;100663.58;;;8.89;70.91
59417;BME280;45222;52.458;20.914;2023-04-30T04:00:30;100676.25;;;8.87;70.97
59417;BME280;45222;52.458;20.914;2023-04-30T04:04:15;100680.02;;;8.86;70.88
59417;BME280;45222;52.458;20.914;2023-04-30T04:08:00;100684.19;;;8.88;71.05
59417;BME280;45222;52.458;20.914;2023-04-30T04:11:45;100693.29;;;8.91;71.17
59417;BME280;45222;52.458;20.914;2023-04-30T04:15:31;100694.89;;;8.91;71.09
59417;BME280;45222;52.458;20.914;2023-04-30T04:19:16;100698.01;;;8.93;71.40
59417;BME280;45222;52.458;20.914;2023-04-30T04:23:01;100705.05;;;8.95;71.59
59417;BME280;45222;52.458;20.914;2023-04-30T04:26:46;100712.48;;;8.95;71.66
59417;BME280;45222;52.458;20.914;2023-04-30T04:30:31;100710.70;;;8.95;72.19
59417;BME280;45222;52.458;20.914;2023-04-30T04:34:17;100719.67;;;8.97;72.55
59417;BME280;45222;52.458;20.914;2023-04-30T04:38:03;100730.06;;;8.99;72.95
59417;BME280;45222;52.458;20.914;2023-04-30T04:41:49;100734.96;;;9.01;72.92
59417;BME280;45222;52.458;20.914;2023-04-30T04:45:34;100735.92;;;9.04;73.29
59417;BME280;45222;52.458;20.914;2023-04-30T04:49:20;100752.10;;;9.08;73.42
59417;BME280;45222;52.458;20.914;2023-04-30T04:53:05;100753.53;;;9.13;73.01
59417;BME280;45222;52.458;20.914;2023-04-30T04:56:50;100759.79;;;9.16;73.32
59417;BME280;45222;52.458;20.914;2023-04-30T05:00:35;100768.70;;;9.21;73.47
59417;BME280;45222;52.458;20.914;2023-04-30T05:04:21;100771.05;;;9.24;73.53
59417;BME280;45222;52.458;20.914;2023-04-30T05:08:06;100770.20;;;9.28;73.68
59417;BME280;45222;52.458;20.914;2023-04-30T05:11:51;100774.54;;;9.31;73.70
59417;BME280;45222;52.458;20.914;2023-04-30T05:15:36;100784.23;;;9.32;72.24
59417;BME280;45222;52.458;20.914;2023-04-30T05:19:22;100784.88;;;9.34;71.67
59417;BME280;45222;52.458;20.914;2023-04-30T05:23:07;100791.50;;;9.38;70.98
59417;BME280;45222;52.458;20.914;2023-04-30T05:26:52;100787.90;;;9.44;70.90
59417;BME280;45222;52.458;20.914;2023-04-30T05:30:37;100800.30;;;9.50;70.45
59417;BME280;45222;52.458;20.914;2023-04-30T05:34:22;100804.56;;;9.59;70.53
59417;BME280;45222;52.458;20.914;2023-04-30T05:38:08;100812.27;;;9.62;70.18
59417;BME280;45222;52.458;20.914;2023-04-30T05:41:53;100822.27;;;9.65;69.77
59417;BME280;45222;52.458;20.914;2023-04-30T05:45:38;100828.89;;;9.69;68.69
59417;BME280;45222;52.458;20.914;2023-04-30T05:49:23;100827.17;;;9.72;67.98
59417;BME280;45222;52.458;20.914;2023-04-30T05:53:09;100834.27;;;9.81;67.73
59417;BME280;45222;52.458;20.914;2023-04-30T05:56:54;100839.55;;;9.91;67.68
59417;BME280;45222;52.458;20.914;2023-04-30T06:00:39;100841.98;;;10.03;67.03
59417;BME280;45222;52.458;20.914;2023-04-30T06:04:24;100842.81;;;10.09;65.63
59417;BME280;45222;52.458;20.914;2023-04-30T06:08:10;100843.80;;;10.11;65.51
59417;BME280;45222;52.458;20.914;2023-04-30T06:11:56;100847.45;;;10.18;66.07
59417;BME280;45222;52.458;20.914;2023-04-30T06:15:41;100848.44;;;10.15;67.10
59417;BME280;45222;52.458;20.914;2023-04-30T06:19:26;100852.70;;;10.24;68.48
59417;BME280;45222;52.458;20.914;2023-04-30T06:23:12;100856.32;;;10.23;68.02
59417;BME280;45222;52.458;20.914;2023-04-30T06:26:57;100858.94;;;10.15;66.34
59417;BME280;45222;52.458;20.914;2023-04-30T06:30:42;100859.70;;;10.18;64.63
59417;BME280;45222;52.458;20.914;2023-04-30T06:34:27;100865.37;;;10.23;62.74
59417;BME280;45222;52.458;20.914;2023-04-30T06:38:13;100861.27;;;10.33;62.06
59417;BME280;45222;52.458;20.914;2023-04-30T06:41:58;100856.29;;;10.41;61.74
59417;BME280;45222;52.458;20.914;2023-04-30T06:45:43;100861.84;;;10.50;61.25
59417;BME280;45222;52.458;20.914;2023-04-30T06:49:28;100858.64;;;10.64;59.38
59417;BME280;45222;52.458;20.914;2023-04-30T06:53:14;100857.48;;;10.70;58.53
59417;BME280;45222;52.458;20.914;2023-04-30T06:56:59;100860.98;;;10.80;58.36
59417;BME280;45222;52.458;20.914;2023-04-30T07:00:48;100860.41;;;10.85;57.83
59417;BME280;45222;52.458;20.914;2023-04-30T07:04:33;100857.98;;;10.92;58.17
59417;BME280;45222;52.458;20.914;2023-04-30T07:08:18;100858.05;;;10.99;57.02
59417;BME280;45222;52.458;20.914;2023-04-30T07:12:04;100863.48;;;10.97;55.79
59417;BME280;45222;52.458;20.914;2023-04-30T07:15:49;100866.46;;;11.03;57.24
59417;BME280;45222;52.458;20.914;2023-04-30T07:19:35;100873.13;;;11.09;57.19
59417;BME280;45222;52.458;20.914;2023-04-30T07:23:20;100867.37;;;11.19;56.79
59417;BME280;45222;52.458;20.914;2023-04-30T07:27:05;100880.33;;;11.28;55.08
59417;BME280;45222;52.458;20.914;2023-04-30T07:30:50;100878.54;;;11.28;53.92
59417;BME280;45222;52.458;20.914;2023-04-30T07:34:36;100881.96;;;11.40;52.75
59417;BME280;45222;52.458;20.914;2023-04-30T07:38:23;100882.14;;;11.48;52.37
59417;BME280;45222;52.458;20.914;2023-04-30T07:42:08;100891.66;;;11.46;50.94
59417;BME280;45222;52.458;20.914;2023-04-30T07:45:53;100898.63;;;11.45;51.52
59417;BME280;45222;52.458;20.914;2023-04-30T07:49:39;100898.27;;;11.54;51.65
59417;BME280;45222;52.458;20.914;2023-04-30T07:53:25;100897.30;;;11.60;51.46
59417;BME280;45222;52.458;20.914;2023-04-30T07:57:10;100905.92;;;11.70;51.90
59417;BME280;45222;52.458;20.914;2023-04-30T08:00:56;100908.10;;;11.77;51.88
59417;BME280;45222;52.458;20.914;2023-04-30T08:04:41;100912.70;;;11.94;52.48
59417;BME280;45222;52.458;20.914;2023-04-30T08:08:27;100911.67;;;11.85;52.60
59417;BME280;45222;52.458;20.914;2023-04-30T08:12:12;100920.00;;;11.90;51.54
59417;BME280;45222;52.458;20.914;2023-04-30T08:15:57;100916.39;;;11.91;49.85
59417;BME280;45222;52.458;20.914;2023-04-30T08:19:42;100919.63;;;12.02;49.38
59417;BME280;45222;52.458;20.914;2023-04-30T08:23:27;100927.45;;;12.11;48.47
59417;BME280;45222;52.458;20.914;2023-04-30T08:27:13;100928.95;;;12.14;48.56
59417;BME280;45222;52.458;20.914;2023-04-30T08:30:58;100926.39;;;12.07;48.47
59417;BME280;45222;52.458;20.914;2023-04-30T08:34:43;100930.38;;;12.14;48.80
59417;BME280;45222;52.458;20.914;2023-04-30T08:38:28;100936.71;;;12.19;46.75
59417;BME280;45222;52.458;20.914;2023-04-30T08:42:18;100938.10;;;12.28;46.06
59417;BME280;45222;52.458;20.914;2023-04-30T08:46:11;100947.88;;;12.32;44.19
59417;BME280;45222;52.458;20.914;2023-04-30T08:49:57;100949.56;;;12.27;43.20
59417;BME280;45222;52.458;20.914;2023-04-30T08:53:44;100949.52;;;12.31;43.73
59417;BME280;45222;52.458;20.914;2023-04-30T08:57:30;100947.91;;;12.32;42.03
59417;BME280;45222;52.458;20.914;2023-04-30T09:01:15;100951.02;;;12.30;42.62
59417;BME280;45222;52.458;20.914;2023-04-30T09:05:00;100953.52;;;12.38;43.17
59417;BME280;45222;52.458;20.914;2023-04-30T09:08:47;100956.72;;;12.49;42.95
59417;BME280;45222;52.458;20.914;2023-04-30T09:12:33;100961.36;;;12.53;42.33
59417;BME280;45222;52.458;20.914;2023-04-30T09:16:20;100963.11;;;12.65;42.67
59417;BME280;45222;52.458;20.914;2023-04-30T09:20:11;100962.39;;;12.77;40.82
59417;BME280;45222;52.458;20.914;2023-04-30T09:23:57;100966.42;;;12.85;40.15
59417;BME280;45222;52.458;20.914;2023-04-30T09:27:44;100973.31;;;12.83;38.78
59417;BME280;45222;52.458;20.914;2023-04-30T09:31:29;100982.86;;;12.89;39.66
59417;BME280;45222;52.458;20.914;2023-04-30T09:35:29;100980.57;;;12.99;39.91
59417;BME280;45222;52.458;20.914;2023-04-30T09:39:14;100982.10;;;13.12;39.88
59417;BME280;45222;52.458;20.914;2023-04-30T09:43:01;100984.67;;;13.18;37.68
59417;BME280;45222;52.458;20.914;2023-04-30T09:46:49;100985.11;;;13.23;40.24
59417;BME280;45222;52.458;20.914;2023-04-30T09:50:38;100973.20;;;13.40;40.93
59417;BME280;45222;52.458;20.914;2023-04-30T09:54:23;100985.12;;;13.49;38.58
59417;BME280;45222;52.458;20.914;2023-04-30T09:58:10;100986.59;;;13.48;37.51
59417;BME280;45222;52.458;20.914;2023-04-30T10:01:58;100981.06;;;13.55;38.23
59417;BME280;45222;52.458;20.914;2023-04-30T10:05:45;100977.41;;;13.57;36.68
59417;BME280;45222;52.458;20.914;2023-04-30T10:09:37;100976.91;;;13.66;37.63
59417;BME280;45222;52.458;20.914;2023-04-30T10:13:25;100976.45;;;13.79;37.54
59417;BME280;45222;52.458;20.914;2023-04-30T10:17:12;100967.48;;;13.75;37.57
59417;BME280;45222;52.458;20.914;2023-04-30T10:20:59;100975.70;;;13.73;37.06
59417;BME280;45222;52.458;20.914;2023-04-30T10:24:47;100974.73;;;13.84;36.73
59417;BME280;45222;52.458;20.914;2023-04-30T10:28:32;100972.62;;;13.87;34.80
59417;BME280;45222;52.458;20.914;2023-04-30T10:32:19;100967.80;;;13.94;35.01
59417;BME280;45222;52.458;20.914;2023-04-30T10:36:09;100971.30;;;14.05;34.49
59417;BME280;45222;52.458;20.914;2023-04-30T10:39:57;100972.30;;;14.13;34.36
59417;BME280;45222;52.458;20.914;2023-04-30T10:43:42;100975.70;;;14.17;35.42
59417;BME280;45222;52.458;20.914;2023-04-30T10:47:29;100976.80;;;14.19;35.86
59417;BME280;45222;52.458;20.914;2023-04-30T10:51:16;100974.66;;;14.23;35.79
59417;BME280;45222;52.458;20.914;2023-04-30T10:55:05;100976.08;;;14.29;35.74
59417;BME280;45222;52.458;20.914;2023-04-30T10:58:51;100977.03;;;14.32;36.49
59417;BME280;45222;52.458;20.914;2023-04-30T11:02:39;100969.83;;;14.43;36.96
59417;BME280;45222;52.458;20.914;2023-04-30T11:06:26;100971.50;;;14.67;37.23
59417;BME280;45222;52.458;20.914;2023-04-30T11:10:33;100971.81;;;14.91;37.46
59417;BME280;45222;52.458;20.914;2023-04-30T11:14:20;100968.32;;;15.02;36.65
59417;BME280;45222;52.458;20.914;2023-04-30T11:18:07;100976.73;;;14.93;33.90
59417;BME280;45222;52.458;20.914;2023-04-30T11:22:20;100976.63;;;14.75;33.89
59417;BME280;45222;52.458;20.914;2023-04-30T11:26:07;100981.24;;;14.83;35.32
59417;BME280;45222;52.458;20.914;2023-04-30T11:29:54;100975.38;;;14.97;35.29
59417;BME280;45222;52.458;20.914;2023-04-30T11:33:40;100971.01;;;15.05;34.96
59417;BME280;45222;52.458;20.914;2023-04-30T11:37:30;100979.47;;;15.11;33.67
59417;BME280;45222;52.458;20.914;2023-04-30T11:41:16;100977.46;;;15.11;33.51
59417;BME280;45222;52.458;20.914;2023-04-30T11:45:06;100982.24;;;15.21;34.91
59417;BME280;45222;52.458;20.914;2023-04-30T11:48:52;100987.02;;;15.44;34.51
59417;BME280;45222;52.458;20.914;2023-04-30T11:52:37;100975.27;;;15.52;34.27
59417;BME280;45222;52.458;20.914;2023-04-30T11:56:23;100987.49;;;15.48;32.50
59417;BME280;45222;52.458;20.914;2023-04-30T12:00:13;100995.55;;;15.27;31.00
59417;BME280;45222;52.458;20.914;2023-04-30T12:03:59;100990.83;;;15.31;32.21
59417;BME280;45222;52.458;20.914;2023-04-30T12:07:48;100990.34;;;15.42;31.70
59417;BME280;45222;52.458;20.914;2023-04-30T12:11:34;100997.02;;;15.48;32.38
59417;BME280;45222;52.458;20.914;2023-04-30T12:15:21;100992.10;;;15.58;32.15
59417;BME280;45222;52.458;20.914;2023-04-30T12:19:09;100993.73;;;15.85;32.13
59417;BME280;45222;52.458;20.914;2023-04-30T12:22:55;100996.14;;;15.81;30.58
59417;BME280;45222;52.458;20.914;2023-04-30T12:26:42;100996.46;;;15.73;31.36
59417;BME280;45222;52.458;20.914;2023-04-30T12:30:27;100990.45;;;15.86;31.40
59417;BME280;45222;52.458;20.914;2023-04-30T12:34:14;100993.96;;;16.00;31.80
59417;BME280;45222;52.458;20.914;2023-04-30T12:38:03;100996.67;;;15.90;30.62
59417;BME280;45222;52.458;20.914;2023-04-30T12:41:49;100997.77;;;15.84;31.08
59417;BME280;45222;52.458;20.914;2023-04-30T12:45:45;100994.59;;;15.95;31.48
59417;BME280;45222;52.458;20.914;2023-04-30T12:49:33;100997.96;;;16.07;30.58
59417;BME280;45222;52.458;20.914;2023-04-30T12:53:19;100990.75;;;15.99;30.60
59417;BME280;45222;52.458;20.914;2023-04-30T12:57:07;100990.11;;;16.07;30.38
59417;BME280;45222;52.458;20.914;2023-04-30T13:01:02;100995.27;;;16.22;30.77
59417;BME280;45222;52.458;20.914;2023-04-30T13:04:55;100985.91;;;16.11;30.12
59417;BME280;45222;52.458;20.914;2023-04-30T13:08:40;100981.98;;;16.02;30.83
59417;BME280;45222;52.458;20.914;2023-04-30T13:12:26;100982.52;;;16.02;30.72
59417;BME280;45222;52.458;20.914;2023-04-30T13:16:11;100976.11;;;15.98;30.77
59417;BME280;45222;52.458;20.914;2023-04-30T13:19:57;100971.36;;;16.17;31.66
59417;BME280;45222;52.458;20.914;2023-04-30T13:23:42;100973.71;;;16.23;30.13
59417;BME280;45222;52.458;20.914;2023-04-30T13:27:27;100978.98;;;16.10;30.02
59417;BME280;45222;52.458;20.914;2023-04-30T13:31:12;100979.23;;;16.06;29.91
59417;BME280;45222;52.458;20.914;2023-04-30T13:34:57;100984.52;;;16.16;29.86
59417;BME280;45222;52.458;20.914;2023-04-30T13:38:43;100984.94;;;16.12;29.69
59417;BME280;45222;52.458;20.914;2023-04-30T13:42:28;100971.33;;;16.09;29.58
59417;BME280;45222;52.458;20.914;2023-04-30T13:46:16;100973.96;;;16.21;29.59
59417;BME280;45222;52.458;20.914;2023-04-30T13:50:01;100974.91;;;16.23;29.25
59417;BME280;45222;52.458;20.914;2023-04-30T13:53:46;100967.51;;;16.18;29.75
59417;BME280;45222;52.458;20.914;2023-04-30T13:57:32;100966.96;;;16.30;29.05
59417;BME280;45222;52.458;20.914;2023-04-30T14:01:17;100975.28;;;16.20;28.76
59417;BME280;45222;52.458;20.914;2023-04-30T14:05:02;100969.90;;;16.20;28.91
59417;BME280;45222;52.458;20.914;2023-04-30T14:08:48;100965.48;;;16.28;28.87
59417;BME280;45222;52.458;20.914;2023-04-30T14:12:33;100975.77;;;16.21;28.69
59417;BME280;45222;52.458;20.914;2023-04-30T14:16:18;100971.64;;;16.27;28.44
59417;BME280;45222;52.458;20.914;2023-04-30T14:20:06;100970.59;;;16.21;27.42
59417;BME280;45222;52.458;20.914;2023-04-30T14:23:51;100975.13;;;16.14;28.53
59417;BME280;45222;52.458;20.914;2023-04-30T14:27:37;100970.83;;;16.14;28.53
59417;BME280;45222;52.458;20.914;2023-04-30T14:31:22;100968.98;;;16.18;28.90
59417;BME280;45222;52.458;20.914;2023-04-30T14:35:08;100975.48;;;16.17;28.39
59417;BME280;45222;52.458;20.914;2023-04-30T14:38:54;100976.11;;;16.07;28.30
59417;BME280;45222;52.458;20.914;2023-04-30T14:42:39;100981.13;;;15.98;28.39
59417;BME280;45222;52.458;20.914;2023-04-30T14:46:25;100978.02;;;16.05;28.68
59417;BME280;45222;52.458;20.914;2023-04-30T14:50:11;100980.19;;;15.99;28.17
59417;BME280;45222;52.458;20.914;2023-04-30T14:53:56;100986.35;;;15.85;28.32
59417;BME280;45222;52.458;20.914;2023-04-30T14:57:41;100991.31;;;15.65;27.70
59417;BME280;45222;52.458;20.914;2023-04-30T15:01:27;100989.82;;;15.48;28.63
59417;BME280;45222;52.458;20.914;2023-04-30T15:05:13;100991.65;;;15.45;29.57
59417;BME280;45222;52.458;20.914;2023-04-30T15:08:59;100988.08;;;15.41;29.50
59417;BME280;45222;52.458;20.914;2023-04-30T15:12:49;100989.42;;;15.34;29.78
59417;BME280;45222;52.458;20.914;2023-04-30T15:16:49;100994.70;;;15.20;29.88
59417;BME280;45222;52.458;20.914;2023-04-30T15:20:41;100993.70;;;15.09;30.50
59417;BME280;45222;52.458;20.914;2023-04-30T15:24:26;100991.86;;;15.00;30.27
59417;BME280;45222;52.458;20.914;2023-04-30T15:28:11;100997.17;;;14.89;30.38
59417;BME280;45222;52.458;20.914;2023-04-30T15:31:56;100997.98;;;14.67;30.55
59417;BME280;45222;52.458;20.914;2023-04-30T15:35:42;101000.85;;;14.45;30.95
59417;BME280;45222;52.458;20.914;2023-04-30T15:39:28;100996.59;;;14.34;32.04
59417;BME280;45222;52.458;20.914;2023-04-30T15:43:13;101002.52;;;14.23;31.27
59417;BME280;45222;52.458;20.914;2023-04-30T15:46:58;101003.02;;;14.11;31.59
59417;BME280;45222;52.458;20.914;2023-04-30T15:50:43;101005.42;;;14.02;31.62
59417;BME280;45222;52.458;20.914;2023-04-30T15:54:29;101007.65;;;14.01;32.32
59417;BME280;45222;52.458;20.914;2023-04-30T15:58:14;101004.96;;;14.07;32.36
59417;BME280;45222;52.458;20.914;2023-04-30T16:02:00;101012.86;;;14.14;32.06
59417;BME280;45222;52.458;20.914;2023-04-30T16:05:45;101010.88;;;14.17;31.88
59417;BME280;45222;52.458;20.914;2023-04-30T16:09:31;101011.30;;;14.06;31.37
59417;BME280;45222;52.458;20.914;2023-04-30T16:13:17;101008.77;;;13.90;31.92
59417;BME280;45222;52.458;20.914;2023-04-30T16:17:03;101011.25;;;13.72;32.24
59417;BME280;45222;52.458;20.914;2023-04-30T16:20:49;101019.75;;;13.60;32.71
59417;BME280;45222;52.458;20.914;2023-04-30T16:24:35;101019.30;;;13.51;32.80
59417;BME280;45222;52.458;20.914;2023-04-30T16:28:20;101017.64;;;13.41;32.85
59417;BME280;45222;52.458;20.914;2023-04-30T16:32:07;101016.45;;;13.43;33.11
59417;BME280;45222;52.458;20.914;2023-04-30T16:35:52;101020.48;;;13.37;33.04
59417;BME280;45222;52.458;20.914;2023-04-30T16:39:37;101021.54;;;13.23;33.02
59417;BME280;45222;52.458;20.914;2023-04-30T16:43:24;101019.92;;;13.13;33.58
59417;BME280;45222;52.458;20.914;2023-04-30T16:47:10;101021.47;;;13.03;34.16
59417;BME280;45222;52.458;20.914;2023-04-30T16:50:55;101025.27;;;12.91;33.89
59417;BME280;45222;52.458;20.914;2023-04-30T16:54:40;101025.50;;;12.78;34.36
59417;BME280;45222;52.458;20.914;2023-04-30T16:58:26;101028.83;;;12.72;34.71
59417;BME280;45222;52.458;20.914;2023-04-30T17:02:11;101026.09;;;12.62;34.87
59417;BME280;45222;52.458;20.914;2023-04-30T17:05:56;101024.91;;;12.49;34.83
59417;BME280;45222;52.458;20.914;2023-04-30T17:09:41;101030.04;;;12.37;35.16
59417;BME280;45222;52.458;20.914;2023-04-30T17:13:27;101034.34;;;12.29;35.41
59417;BME280;45222;52.458;20.914;2023-04-30T17:17:15;101042.64;;;12.23;35.67
59417;BME280;45222;52.458;20.914;2023-04-30T17:21:00;101046.68;;;12.16;35.87
59417;BME280;45222;52.458;20.914;2023-04-30T17:24:46;101049.27;;;12.06;35.90
59417;BME280;45222;52.458;20.914;2023-04-30T17:28:31;101049.40;;;11.94;36.68
59417;BME280;45222;52.458;20.914;2023-04-30T17:32:17;101057.45;;;11.81;36.70
59417;BME280;45222;52.458;20.914;2023-04-30T17:36:02;101060.64;;;11.64;36.88
59417;BME280;45222;52.458;20.914;2023-04-30T17:39:48;101066.06;;;11.49;37.53
59417;BME280;45222;52.458;20.914;2023-04-30T17:43:33;101066.69;;;11.34;38.18
59417;BME280;45222;52.458;20.914;2023-04-30T17:47:18;101067.99;;;11.19;38.47
59417;BME280;45222;52.458;20.914;2023-04-30T17:51:06;101072.11;;;11.05;38.62
59417;BME280;45222;52.458;20.914;2023-04-30T17:54:51;101076.80;;;10.89;39.22
59417;BME280;45222;52.458;20.914;2023-04-30T17:58:37;101078.27;;;10.74;39.35
59417;BME280;45222;52.458;20.914;2023-04-30T18:02:22;101080.45;;;10.59;39.55
59417;BME280;45222;52.458;20.914;2023-04-30T18:06:07;101082.70;;;10.45;40.03
59417;BME280;45222;52.458;20.914;2023-04-30T18:09:53;101087.98;;;10.32;40.30
59417;BME280;45222;52.458;20.914;2023-04-30T18:13:38;101094.11;;;10.19;40.75
59417;BME280;45222;52.458;20.914;2023-04-30T18:17:23;101096.98;;;10.03;41.58
59417;BME280;45222;52.458;20.914;2023-04-30T18:21:09;101101.36;;;9.84;41.95
59417;BME280;45222;52.458;20.914;2023-04-30T18:24:54;101103.23;;;9.64;42.65
59417;BME280;45222;52.458;20.914;2023-04-30T18:28:40;101106.44;;;9.42;44.05
59417;BME280;45222;52.458;20.914;2023-04-30T18:32:25;101110.05;;;9.24;45.65
59417;BME280;45222;52.458;20.914;2023-04-30T18:36:11;101111.91;;;9.09;46.22
59417;BME280;45222;52.458;20.914;2023-04-30T18:39:56;101115.36;;;8.95;46.43
59417;BME280;45222;52.458;20.914;2023-04-30T18:43:42;101113.81;;;8.80;46.74
59417;BME280;45222;52.458;20.914;2023-04-30T18:47:28;101120.95;;;8.66;47.74
59417;BME280;45222;52.458;20.914;2023-04-30T18:51:15;101118.16;;;8.52;48.23
59417;BME280;45222;52.458;20.914;2023-04-30T18:55:00;101121.20;;;8.37;49.07
59417;BME280;45222;52.458;20.914;2023-04-30T18:58:46;101127.13;;;8.20;48.83
59417;BME280;45222;52.458;20.914;2023-04-30T19:02:31;101130.36;;;8.05;48.84
59417;BME280;45222;52.458;20.914;2023-04-30T19:06:16;101128.75;;;7.92;49.40
59417;BME280;45222;52.458;20.914;2023-04-30T19:10:02;101130.48;;;7.79;50.45
59417;BME280;45222;52.458;20.914;2023-04-30T19:13:48;101133.14;;;7.64;51.06
59417;BME280;45222;52.458;20.914;2023-04-30T19:17:33;101133.89;;;7.48;51.54
59417;BME280;45222;52.458;20.914;2023-04-30T19:21:18;101139.39;;;7.32;52.30
59417;BME280;45222;52.458;20.914;2023-04-30T19:25:05;101145.18;;;7.18;53.25
59417;BME280;45222;52.458;20.914;2023-04-30T19:28:50;101146.90;;;7.03;53.89
59417;BME280;45222;52.458;20.914;2023-04-30T19:32:36;101153.40;;;6.88;54.66